sensor_id;sensor_type;location;lat;lon;timestamp;P1;durP1;ratioP1;P2;durP2;ratioP2
59486;SDS011;45298;54.918;73.504;2023-07-13T00:01:16;9.70;;;3.20;;
59486;SDS011;45298;54.918;73.504;2023-07-13T00:03:45;7.93;;;3.40;;
59486;SDS011;45298;54.918;73.504;2023-07-13T00:06:14;14.10;;;7.68;;
59486;SDS011;45298;54.918;73.504;2023-07-13T00:08:43;7.70;;;3.50;;
59486;SDS011;45298;54.918;73.504;2023-07-13T00:11:12;10.77;;;4.20;;
59486;SDS011;45298;54.918;73.504;2023-07-13T00:13:42;6.32;;;3.42;;
59486;SDS011;45298;54.918;73.504;2023-07-13T00:16:12;7.10;;;3.30;;
59486;SDS011;45298;54.918;73.504;2023-07-13T00:18:41;8.75;;;4.10;;
59486;SDS011;45298;54.918;73.504;2023-07-13T00:21:10;12.35;;;3.53;;
59486;SDS011;45298;54.918;73.504;2023-07-13T00:23:40;8.45;;;3.55;;
59486;SDS011;45298;54.918;73.504;2023-07-13T00:26:11;9.02;;;4.00;;
59486;SDS011;45298;54.918;73.504;2023-07-13T00:28:41;7.75;;;3.40;;
59486;SDS011;45298;54.918;73.504;2023-07-13T00:31:11;6.93;;;3.47;;
59486;SDS011;45298;54.918;73.504;2023-07-13T00:33:42;4.68;;;3.25;;
59486;SDS011;45298;54.918;73.504;2023-07-13T00:36:11;6.63;;;3.75;;
59486;SDS011;45298;54.918;73.504;2023-07-13T00:38:41;13.00;;;3.60;;
59486;SDS011;45298;54.918;73.504;2023-07-13T00:41:10;8.60;;;3.50;;
59486;SDS011;45298;54.918;73.504;2023-07-13T00:43:40;5.70;;;3.65;;
59486;SDS011;45298;54.918;73.504;2023-07-13T00:46:14;6.90;;;3.38;;
59486;SDS011;45298;54.918;73.504;2023-07-13T00:48:50;9.82;;;3.65;;
59486;SDS011;45298;54.918;73.504;2023-07-13T00:51:23;9.77;;;3.60;;
59486;SDS011;45298;54.918;73.504;2023-07-13T00:53:56;7.47;;;3.58;;
59486;SDS011;45298;54.918;73.504;2023-07-13T00:56:28;5.70;;;3.20;;
59486;SDS011;45298;54.918;73.504;2023-07-13T00:58:59;7.45;;;3.40;;
59486;SDS011;45298;54.918;73.504;2023-07-13T01:01:30;4.60;;;3.50;;
59486;SDS011;45298;54.918;73.504;2023-07-13T01:04:00;7.75;;;3.47;;
59486;SDS011;45298;54.918;73.504;2023-07-13T01:06:29;7.13;;;3.40;;
59486;SDS011;45298;54.918;73.504;2023-07-13T01:08:59;8.48;;;3.40;;
59486;SDS011;45298;54.918;73.504;2023-07-13T01:11:28;7.88;;;3.40;;
59486;SDS011;45298;54.918;73.504;2023-07-13T01:13:57;8.73;;;3.17;;
59486;SDS011;45298;54.918;73.504;2023-07-13T01:16:30;7.40;;;3.03;;
59486;SDS011;45298;54.918;73.504;2023-07-13T01:19:01;7.45;;;3.20;;
59486;SDS011;45298;54.918;73.504;2023-07-13T01:21:36;14.95;;;4.63;;
59486;SDS011;45298;54.918;73.504;2023-07-13T01:24:06;7.78;;;3.63;;
59486;SDS011;45298;54.918;73.504;2023-07-13T01:26:34;15.38;;;4.80;;
59486;SDS011;45298;54.918;73.504;2023-07-13T01:29:06;11.25;;;3.88;;
59486;SDS011;45298;54.918;73.504;2023-07-13T01:31:38;9.05;;;3.63;;
59486;SDS011;45298;54.918;73.504;2023-07-13T01:34:07;5.80;;;3.20;;
59486;SDS011;45298;54.918;73.504;2023-07-13T01:36:36;9.38;;;3.30;;
59486;SDS011;45298;54.918;73.504;2023-07-13T01:39:08;7.22;;;3.40;;
59486;SDS011;45298;54.918;73.504;2023-07-13T01:41:37;7.53;;;3.80;;
59486;SDS011;45298;54.918;73.504;2023-07-13T01:44:06;10.45;;;3.78;;
59486;SDS011;45298;54.918;73.504;2023-07-13T01:46:35;6.68;;;3.50;;
59486;SDS011;45298;54.918;73.504;2023-07-13T01:49:04;10.25;;;3.70;;
59486;SDS011;45298;54.918;73.504;2023-07-13T01:51:33;10.13;;;3.92;;
59486;SDS011;45298;54.918;73.504;2023-07-13T01:54:03;7.40;;;3.53;;
59486;SDS011;45298;54.918;73.504;2023-07-13T01:56:32;7.50;;;3.65;;
59486;SDS011;45298;54.918;73.504;2023-07-13T01:59:01;5.43;;;3.47;;
59486;SDS011;45298;54.918;73.504;2023-07-13T02:01:30;9.20;;;4.10;;
59486;SDS011;45298;54.918;73.504;2023-07-13T02:04:00;7.88;;;3.92;;
59486;SDS011;45298;54.918;73.504;2023-07-13T02:06:32;12.23;;;3.85;;
59486;SDS011;45298;54.918;73.504;2023-07-13T02:09:02;7.90;;;4.10;;
59486;SDS011;45298;54.918;73.504;2023-07-13T02:11:32;6.43;;;4.00;;
59486;SDS011;45298;54.918;73.504;2023-07-13T02:14:02;8.75;;;4.35;;
59486;SDS011;45298;54.918;73.504;2023-07-13T02:16:31;8.15;;;4.40;;
59486;SDS011;45298;54.918;73.504;2023-07-13T02:19:00;10.27;;;4.05;;
59486;SDS011;45298;54.918;73.504;2023-07-13T02:21:30;11.10;;;4.60;;
59486;SDS011;45298;54.918;73.504;2023-07-13T02:23:59;6.13;;;4.63;;
59486;SDS011;45298;54.918;73.504;2023-07-13T02:26:31;10.02;;;4.90;;
59486;SDS011;45298;54.918;73.504;2023-07-13T02:28:59;12.38;;;4.80;;
59486;SDS011;45298;54.918;73.504;2023-07-13T02:31:29;8.80;;;4.63;;
59486;SDS011;45298;54.918;73.504;2023-07-13T02:34:00;11.25;;;4.82;;
59486;SDS011;45298;54.918;73.504;2023-07-13T02:36:30;8.02;;;4.80;;
59486;SDS011;45298;54.918;73.504;2023-07-13T02:39:03;9.60;;;5.22;;
59486;SDS011;45298;54.918;73.504;2023-07-13T02:41:35;11.75;;;4.70;;
59486;SDS011;45298;54.918;73.504;2023-07-13T02:44:04;10.18;;;5.13;;
59486;SDS011;45298;54.918;73.504;2023-07-13T02:46:34;10.60;;;5.30;;
59486;SDS011;45298;54.918;73.504;2023-07-13T02:49:05;15.80;;;5.65;;
59486;SDS011;45298;54.918;73.504;2023-07-13T02:51:35;13.23;;;5.53;;
59486;SDS011;45298;54.918;73.504;2023-07-13T02:54:04;13.65;;;5.47;;
59486;SDS011;45298;54.918;73.504;2023-07-13T02:56:34;11.27;;;5.32;;
59486;SDS011;45298;54.918;73.504;2023-07-13T02:59:07;9.15;;;5.57;;
59486;SDS011;45298;54.918;73.504;2023-07-13T03:01:36;13.68;;;5.65;;
59486;SDS011;45298;54.918;73.504;2023-07-13T03:04:08;12.55;;;5.97;;
59486;SDS011;45298;54.918;73.504;2023-07-13T03:06:37;16.88;;;5.90;;
59486;SDS011;45298;54.918;73.504;2023-07-13T03:09:06;15.27;;;6.05;;
59486;SDS011;45298;54.918;73.504;2023-07-13T03:11:40;20.77;;;6.70;;
59486;SDS011;45298;54.918;73.504;2023-07-13T03:14:18;19.98;;;6.70;;
59486;SDS011;45298;54.918;73.504;2023-07-13T03:16:47;27.92;;;7.53;;
59486;SDS011;45298;54.918;73.504;2023-07-13T03:19:16;22.83;;;7.55;;
59486;SDS011;45298;54.918;73.504;2023-07-13T03:21:49;31.55;;;7.88;;
59486;SDS011;45298;54.918;73.504;2023-07-13T03:24:18;23.05;;;7.30;;
59486;SDS011;45298;54.918;73.504;2023-07-13T03:26:47;30.48;;;7.43;;
59486;SDS011;45298;54.918;73.504;2023-07-13T03:29:18;28.95;;;7.85;;
59486;SDS011;45298;54.918;73.504;2023-07-13T03:31:50;40.53;;;8.18;;
59486;SDS011;45298;54.918;73.504;2023-07-13T03:34:21;30.45;;;8.27;;
59486;SDS011;45298;54.918;73.504;2023-07-13T03:36:49;35.85;;;8.27;;
59486;SDS011;45298;54.918;73.504;2023-07-13T03:39:18;32.63;;;8.43;;
59486;SDS011;45298;54.918;73.504;2023-07-13T03:41:51;40.95;;;8.35;;
59486;SDS011;45298;54.918;73.504;2023-07-13T03:44:21;31.92;;;8.20;;
59486;SDS011;45298;54.918;73.504;2023-07-13T03:46:54;19.05;;;7.43;;
59486;SDS011;45298;54.918;73.504;2023-07-13T03:49:23;23.55;;;7.88;;
59486;SDS011;45298;54.918;73.504;2023-07-13T03:51:53;19.23;;;7.82;;
59486;SDS011;45298;54.918;73.504;2023-07-13T03:54:22;22.50;;;7.97;;
59486;SDS011;45298;54.918;73.504;2023-07-13T03:56:54;21.90;;;8.05;;
59486;SDS011;45298;54.918;73.504;2023-07-13T03:59:24;18.17;;;7.70;;
59486;SDS011;45298;54.918;73.504;2023-07-13T04:01:52;16.88;;;7.85;;
59486;SDS011;45298;54.918;73.504;2023-07-13T04:04:23;21.95;;;7.55;;
59486;SDS011;45298;54.918;73.504;2023-07-13T04:06:52;20.05;;;7.85;;
59486;SDS011;45298;54.918;73.504;2023-07-13T04:09:21;19.25;;;8.07;;
59486;SDS011;45298;54.918;73.504;2023-07-13T04:11:51;14.05;;;8.00;;
59486;SDS011;45298;54.918;73.504;2023-07-13T04:14:20;17.98;;;7.63;;
59486;SDS011;45298;54.918;73.504;2023-07-13T04:16:49;21.60;;;8.40;;
59486;SDS011;45298;54.918;73.504;2023-07-13T04:19:18;15.63;;;7.90;;
59486;SDS011;45298;54.918;73.504;2023-07-13T04:21:47;15.60;;;7.82;;
59486;SDS011;45298;54.918;73.504;2023-07-13T04:24:16;13.57;;;7.80;;
59486;SDS011;45298;54.918;73.504;2023-07-13T04:26:45;23.27;;;8.25;;
59486;SDS011;45298;54.918;73.504;2023-07-13T04:29:14;21.20;;;7.90;;
59486;SDS011;45298;54.918;73.504;2023-07-13T04:31:43;20.60;;;8.27;;
59486;SDS011;45298;54.918;73.504;2023-07-13T04:34:12;26.55;;;8.23;;
59486;SDS011;45298;54.918;73.504;2023-07-13T04:36:41;16.77;;;8.40;;
59486;SDS011;45298;54.918;73.504;2023-07-13T04:39:10;22.67;;;8.68;;
59486;SDS011;45298;54.918;73.504;2023-07-13T04:41:39;15.95;;;8.32;;
59486;SDS011;45298;54.918;73.504;2023-07-13T04:44:08;18.60;;;8.13;;
59486;SDS011;45298;54.918;73.504;2023-07-13T04:46:37;17.75;;;8.43;;
59486;SDS011;45298;54.918;73.504;2023-07-13T04:49:06;17.88;;;8.15;;
59486;SDS011;45298;54.918;73.504;2023-07-13T04:51:35;21.60;;;8.32;;
59486;SDS011;45298;54.918;73.504;2023-07-13T04:54:04;19.15;;;8.82;;
59486;SDS011;45298;54.918;73.504;2023-07-13T04:56:33;17.40;;;8.10;;
59486;SDS011;45298;54.918;73.504;2023-07-13T04:59:02;17.92;;;8.15;;
59486;SDS011;45298;54.918;73.504;2023-07-13T05:01:31;20.98;;;8.18;;
59486;SDS011;45298;54.918;73.504;2023-07-13T05:04:00;22.75;;;7.90;;
59486;SDS011;45298;54.918;73.504;2023-07-13T05:06:29;23.85;;;8.13;;
59486;SDS011;45298;54.918;73.504;2023-07-13T05:08:59;20.63;;;8.68;;
59486;SDS011;45298;54.918;73.504;2023-07-13T05:11:28;32.05;;;12.38;;
59486;SDS011;45298;54.918;73.504;2023-07-13T05:13:57;24.65;;;8.30;;
59486;SDS011;45298;54.918;73.504;2023-07-13T05:16:27;19.23;;;8.20;;
59486;SDS011;45298;54.918;73.504;2023-07-13T05:18:56;13.55;;;7.93;;
59486;SDS011;45298;54.918;73.504;2023-07-13T05:21:25;15.93;;;7.93;;
59486;SDS011;45298;54.918;73.504;2023-07-13T05:23:54;35.85;;;9.18;;
59486;SDS011;45298;54.918;73.504;2023-07-13T05:26:26;29.55;;;9.98;;
59486;SDS011;45298;54.918;73.504;2023-07-13T05:28:55;30.55;;;10.52;;
59486;SDS011;45298;54.918;73.504;2023-07-13T05:31:27;25.05;;;9.27;;
59486;SDS011;45298;54.918;73.504;2023-07-13T05:33:56;25.98;;;9.40;;
59486;SDS011;45298;54.918;73.504;2023-07-13T05:36:25;30.80;;;9.40;;
59486;SDS011;45298;54.918;73.504;2023-07-13T05:38:54;25.08;;;9.65;;
59486;SDS011;45298;54.918;73.504;2023-07-13T05:41:23;24.50;;;8.95;;
59486;SDS011;45298;54.918;73.504;2023-07-13T05:43:52;24.55;;;9.77;;
59486;SDS011;45298;54.918;73.504;2023-07-13T05:46:21;19.42;;;9.23;;
59486;SDS011;45298;54.918;73.504;2023-07-13T05:48:50;22.48;;;9.00;;
59486;SDS011;45298;54.918;73.504;2023-07-13T05:51:19;25.98;;;9.43;;
59486;SDS011;45298;54.918;73.504;2023-07-13T05:53:48;23.77;;;9.60;;
59486;SDS011;45298;54.918;73.504;2023-07-13T05:56:17;26.70;;;9.52;;
59486;SDS011;45298;54.918;73.504;2023-07-13T05:58:47;27.40;;;9.00;;
59486;SDS011;45298;54.918;73.504;2023-07-13T06:01:17;24.58;;;8.60;;
59486;SDS011;45298;54.918;73.504;2023-07-13T06:03:47;15.27;;;8.10;;
59486;SDS011;45298;54.918;73.504;2023-07-13T06:06:16;28.52;;;9.15;;
59486;SDS011;45298;54.918;73.504;2023-07-13T06:08:45;18.65;;;9.20;;
59486;SDS011;45298;54.918;73.504;2023-07-13T06:11:15;18.77;;;8.93;;
59486;SDS011;45298;54.918;73.504;2023-07-13T06:13:46;24.63;;;8.82;;
59486;SDS011;45298;54.918;73.504;2023-07-13T06:16:16;21.65;;;8.48;;
59486;SDS011;45298;54.918;73.504;2023-07-13T06:18:45;21.83;;;8.82;;
59486;SDS011;45298;54.918;73.504;2023-07-13T06:21:16;29.70;;;8.90;;
59486;SDS011;45298;54.918;73.504;2023-07-13T06:23:47;20.40;;;8.50;;
59486;SDS011;45298;54.918;73.504;2023-07-13T06:26:23;28.48;;;9.40;;
59486;SDS011;45298;54.918;73.504;2023-07-13T06:28:56;25.63;;;8.98;;
59486;SDS011;45298;54.918;73.504;2023-07-13T06:31:25;19.33;;;8.02;;
59486;SDS011;45298;54.918;73.504;2023-07-13T06:33:54;24.60;;;8.63;;
59486;SDS011;45298;54.918;73.504;2023-07-13T06:36:23;19.55;;;8.48;;
59486;SDS011;45298;54.918;73.504;2023-07-13T06:38:52;21.20;;;7.80;;
59486;SDS011;45298;54.918;73.504;2023-07-13T06:41:21;21.52;;;8.75;;
59486;SDS011;45298;54.918;73.504;2023-07-13T06:43:50;20.58;;;8.25;;
59486;SDS011;45298;54.918;73.504;2023-07-13T06:46:21;29.13;;;12.07;;
59486;SDS011;45298;54.918;73.504;2023-07-13T06:48:52;32.28;;;12.10;;
59486;SDS011;45298;54.918;73.504;2023-07-13T06:51:21;20.90;;;10.88;;
59486;SDS011;45298;54.918;73.504;2023-07-13T06:53:51;26.90;;;9.13;;
59486;SDS011;45298;54.918;73.504;2023-07-13T06:56:20;17.75;;;8.73;;
59486;SDS011;45298;54.918;73.504;2023-07-13T06:58:50;20.98;;;8.23;;
59486;SDS011;45298;54.918;73.504;2023-07-13T07:01:19;21.45;;;7.88;;
59486;SDS011;45298;54.918;73.504;2023-07-13T07:03:51;27.60;;;8.65;;
59486;SDS011;45298;54.918;73.504;2023-07-13T07:06:20;22.65;;;8.30;;
59486;SDS011;45298;54.918;73.504;2023-07-13T07:08:52;18.58;;;8.00;;
59486;SDS011;45298;54.918;73.504;2023-07-13T07:11:23;29.23;;;9.75;;
59486;SDS011;45298;54.918;73.504;2023-07-13T07:13:53;21.42;;;8.43;;
59486;SDS011;45298;54.918;73.504;2023-07-13T07:16:24;17.67;;;7.60;;
59486;SDS011;45298;54.918;73.504;2023-07-13T07:18:53;19.35;;;7.72;;
59486;SDS011;45298;54.918;73.504;2023-07-13T07:21:22;23.42;;;8.40;;
59486;SDS011;45298;54.918;73.504;2023-07-13T07:23:52;20.05;;;7.90;;
59486;SDS011;45298;54.918;73.504;2023-07-13T07:26:21;20.10;;;7.75;;
59486;SDS011;45298;54.918;73.504;2023-07-13T07:28:54;22.60;;;7.72;;
59486;SDS011;45298;54.918;73.504;2023-07-13T07:31:26;22.65;;;8.70;;
59486;SDS011;45298;54.918;73.504;2023-07-13T07:33:58;25.33;;;9.20;;
59486;SDS011;45298;54.918;73.504;2023-07-13T07:36:27;15.50;;;8.95;;
59486;SDS011;45298;54.918;73.504;2023-07-13T07:38:59;31.88;;;8.57;;
59486;SDS011;45298;54.918;73.504;2023-07-13T07:41:28;36.67;;;11.30;;
59486;SDS011;45298;54.918;73.504;2023-07-13T07:44:00;35.13;;;9.25;;
59486;SDS011;45298;54.918;73.504;2023-07-13T07:46:29;23.17;;;9.10;;
59486;SDS011;45298;54.918;73.504;2023-07-13T07:49:02;22.40;;;9.15;;
59486;SDS011;45298;54.918;73.504;2023-07-13T07:51:31;33.38;;;9.40;;
59486;SDS011;45298;54.918;73.504;2023-07-13T07:54:00;25.70;;;9.55;;
59486;SDS011;45298;54.918;73.504;2023-07-13T07:56:30;31.00;;;8.90;;
59486;SDS011;45298;54.918;73.504;2023-07-13T07:59:03;29.15;;;8.73;;
59486;SDS011;45298;54.918;73.504;2023-07-13T08:01:36;26.40;;;9.35;;
59486;SDS011;45298;54.918;73.504;2023-07-13T08:04:26;34.03;;;9.55;;
59486;SDS011;45298;54.918;73.504;2023-07-13T08:06:58;28.33;;;8.30;;
59486;SDS011;45298;54.918;73.504;2023-07-13T08:09:27;25.05;;;7.95;;
59486;SDS011;45298;54.918;73.504;2023-07-13T08:11:57;25.40;;;8.20;;
59486;SDS011;45298;54.918;73.504;2023-07-13T08:14:30;29.40;;;8.35;;
59486;SDS011;45298;54.918;73.504;2023-07-13T08:17:21;30.65;;;8.52;;
59486;SDS011;45298;54.918;73.504;2023-07-13T08:19:51;25.48;;;9.20;;
59486;SDS011;45298;54.918;73.504;2023-07-13T08:22:20;30.95;;;11.77;;
59486;SDS011;45298;54.918;73.504;2023-07-13T08:24:49;22.27;;;8.50;;
59486;SDS011;45298;54.918;73.504;2023-07-13T08:27:24;28.65;;;9.27;;
59486;SDS011;45298;54.918;73.504;2023-07-13T08:29:54;28.45;;;7.72;;
59486;SDS011;45298;54.918;73.504;2023-07-13T08:32:24;25.83;;;9.65;;
59486;SDS011;45298;54.918;73.504;2023-07-13T08:34:56;23.92;;;8.75;;
59486;SDS011;45298;54.918;73.504;2023-07-13T08:37:25;20.55;;;7.03;;
59486;SDS011;45298;54.918;73.504;2023-07-13T08:39:54;24.55;;;7.28;;
59486;SDS011;45298;54.918;73.504;2023-07-13T08:42:32;30.63;;;8.27;;
59486;SDS011;45298;54.918;73.504;2023-07-13T08:48:03;15.77;;;6.78;;
59486;SDS011;45298;54.918;73.504;2023-07-13T08:51:16;22.88;;;6.72;;
59486;SDS011;45298;54.918;73.504;2023-07-13T08:53:52;50.10;;;27.40;;
59486;SDS011;45298;54.918;73.504;2023-07-13T08:56:27;20.38;;;7.35;;
59486;SDS011;45298;54.918;73.504;2023-07-13T08:59:04;15.05;;;6.47;;
59486;SDS011;45298;54.918;73.504;2023-07-13T09:04:14;15.27;;;6.90;;
59486;SDS011;45298;54.918;73.504;2023-07-13T09:09:50;21.15;;;6.40;;
59486;SDS011;45298;54.918;73.504;2023-07-13T09:24:17;25.13;;;7.85;;
59486;SDS011;45298;54.918;73.504;2023-07-13T09:27:12;22.20;;;6.85;;
59486;SDS011;45298;54.918;73.504;2023-07-13T09:29:47;16.40;;;6.60;;
59486;SDS011;45298;54.918;73.504;2023-07-13T09:32:48;16.80;;;6.78;;
59486;SDS011;45298;54.918;73.504;2023-07-13T09:35:21;15.70;;;6.68;;
59486;SDS011;45298;54.918;73.504;2023-07-13T09:37:59;16.63;;;6.97;;
59486;SDS011;45298;54.918;73.504;2023-07-13T09:40:39;14.60;;;5.82;;
59486;SDS011;45298;54.918;73.504;2023-07-13T09:43:10;11.32;;;5.35;;
59486;SDS011;45298;54.918;73.504;2023-07-13T09:45:43;17.65;;;5.15;;
59486;SDS011;45298;54.918;73.504;2023-07-13T09:48:16;14.45;;;5.07;;
59486;SDS011;45298;54.918;73.504;2023-07-13T09:50:46;17.40;;;5.25;;
59486;SDS011;45298;54.918;73.504;2023-07-13T09:53:16;15.75;;;5.30;;
59486;SDS011;45298;54.918;73.504;2023-07-13T09:55:47;12.27;;;4.30;;
59486;SDS011;45298;54.918;73.504;2023-07-13T09:58:21;11.23;;;4.47;;
59486;SDS011;45298;54.918;73.504;2023-07-13T10:01:02;9.20;;;4.13;;
59486;SDS011;45298;54.918;73.504;2023-07-13T10:06:13;23.47;;;4.93;;
59486;SDS011;45298;54.918;73.504;2023-07-13T10:08:45;10.20;;;4.35;;
59486;SDS011;45298;54.918;73.504;2023-07-13T10:13:58;10.13;;;3.97;;
59486;SDS011;45298;54.918;73.504;2023-07-13T10:16:31;10.45;;;3.90;;
59486;SDS011;45298;54.918;73.504;2023-07-13T10:19:03;13.88;;;4.32;;
59486;SDS011;45298;54.918;73.504;2023-07-13T10:21:45;11.57;;;3.85;;
59486;SDS011;45298;54.918;73.504;2023-07-13T10:24:29;6.93;;;3.58;;
59486;SDS011;45298;54.918;73.504;2023-07-13T10:27:03;9.75;;;3.35;;
59486;SDS011;45298;54.918;73.504;2023-07-13T10:30:02;13.17;;;4.27;;
59486;SDS011;45298;54.918;73.504;2023-07-13T10:32:33;8.20;;;3.63;;
59486;SDS011;45298;54.918;73.504;2023-07-13T10:35:02;8.25;;;3.58;;
59486;SDS011;45298;54.918;73.504;2023-07-13T10:37:56;10.20;;;3.58;;
59486;SDS011;45298;54.918;73.504;2023-07-13T10:40:41;10.55;;;3.78;;
59486;SDS011;45298;54.918;73.504;2023-07-13T10:43:29;10.57;;;4.00;;
59486;SDS011;45298;54.918;73.504;2023-07-13T10:46:10;7.47;;;3.58;;
59486;SDS011;45298;54.918;73.504;2023-07-13T10:48:42;8.75;;;3.67;;
59486;SDS011;45298;54.918;73.504;2023-07-13T10:51:14;7.47;;;3.92;;
59486;SDS011;45298;54.918;73.504;2023-07-13T10:53:46;5.33;;;3.73;;
59486;SDS011;45298;54.918;73.504;2023-07-13T10:56:22;7.43;;;3.50;;
59486;SDS011;45298;54.918;73.504;2023-07-13T11:01:51;8.02;;;3.80;;
59486;SDS011;45298;54.918;73.504;2023-07-13T11:04:42;7.65;;;3.55;;
59486;SDS011;45298;54.918;73.504;2023-07-13T11:07:24;8.48;;;3.60;;
59486;SDS011;45298;54.918;73.504;2023-07-13T11:09:59;12.52;;;4.22;;
59486;SDS011;45298;54.918;73.504;2023-07-13T11:15:27;10.15;;;4.00;;
59486;SDS011;45298;54.918;73.504;2023-07-13T11:18:02;11.18;;;3.97;;
59486;SDS011;45298;54.918;73.504;2023-07-13T11:20:33;16.27;;;4.47;;
59486;SDS011;45298;54.918;73.504;2023-07-13T11:23:15;16.35;;;4.57;;
59486;SDS011;45298;54.918;73.504;2023-07-13T11:25:47;9.25;;;3.90;;
59486;SDS011;45298;54.918;73.504;2023-07-13T11:28:21;9.35;;;4.07;;
59486;SDS011;45298;54.918;73.504;2023-07-13T11:36:14;11.25;;;5.60;;
59486;SDS011;45298;54.918;73.504;2023-07-13T11:39:02;9.35;;;6.20;;
59486;SDS011;45298;54.918;73.504;2023-07-13T11:41:35;16.48;;;7.13;;
59486;SDS011;45298;54.918;73.504;2023-07-13T11:44:13;17.17;;;8.23;;
59486;SDS011;45298;54.918;73.504;2023-07-13T11:46:49;12.15;;;4.63;;
59486;SDS011;45298;54.918;73.504;2023-07-13T11:49:23;12.48;;;4.80;;
59486;SDS011;45298;54.918;73.504;2023-07-13T11:51:55;14.25;;;3.70;;
59486;SDS011;45298;54.918;73.504;2023-07-13T11:54:41;8.13;;;3.95;;
59486;SDS011;45298;54.918;73.504;2023-07-13T11:57:25;25.38;;;4.80;;
59486;SDS011;45298;54.918;73.504;2023-07-13T11:59:55;17.15;;;4.57;;
59486;SDS011;45298;54.918;73.504;2023-07-13T12:02:33;16.55;;;3.92;;
59486;SDS011;45298;54.918;73.504;2023-07-13T12:05:11;17.48;;;4.40;;
59486;SDS011;45298;54.918;73.504;2023-07-13T12:07:43;14.40;;;4.32;;
59486;SDS011;45298;54.918;73.504;2023-07-13T12:10:26;9.80;;;4.00;;
59486;SDS011;45298;54.918;73.504;2023-07-13T12:13:04;14.25;;;4.28;;
59486;SDS011;45298;54.918;73.504;2023-07-13T12:15:39;13.48;;;6.68;;
59486;SDS011;45298;54.918;73.504;2023-07-13T12:18:19;49.63;;;7.20;;
59486;SDS011;45298;54.918;73.504;2023-07-13T12:20:50;23.08;;;4.70;;
59486;SDS011;45298;54.918;73.504;2023-07-13T12:23:28;26.83;;;6.20;;
59486;SDS011;45298;54.918;73.504;2023-07-13T12:26:04;19.85;;;4.95;;
59486;SDS011;45298;54.918;73.504;2023-07-13T12:34:12;14.63;;;6.32;;
59486;SDS011;45298;54.918;73.504;2023-07-13T12:36:51;14.63;;;6.63;;
59486;SDS011;45298;54.918;73.504;2023-07-13T12:45:17;15.45;;;5.45;;
59486;SDS011;45298;54.918;73.504;2023-07-13T12:47:57;17.73;;;5.05;;
59486;SDS011;45298;54.918;73.504;2023-07-13T12:51:03;16.25;;;4.80;;
59486;SDS011;45298;54.918;73.504;2023-07-13T12:53:34;22.13;;;9.52;;
59486;SDS011;45298;54.918;73.504;2023-07-13T12:56:14;16.45;;;5.25;;
59486;SDS011;45298;54.918;73.504;2023-07-13T12:59:03;21.70;;;6.70;;
59486;SDS011;45298;54.918;73.504;2023-07-13T13:01:35;22.48;;;6.72;;
59486;SDS011;45298;54.918;73.504;2023-07-13T13:04:08;23.05;;;7.85;;
59486;SDS011;45298;54.918;73.504;2023-07-13T13:06:39;24.15;;;6.65;;
59486;SDS011;45298;54.918;73.504;2023-07-13T13:09:14;18.20;;;6.03;;
59486;SDS011;45298;54.918;73.504;2023-07-13T13:11:44;16.00;;;5.50;;
59486;SDS011;45298;54.918;73.504;2023-07-13T13:14:13;13.15;;;4.95;;
59486;SDS011;45298;54.918;73.504;2023-07-13T13:16:46;11.38;;;4.95;;
59486;SDS011;45298;54.918;73.504;2023-07-13T13:19:18;11.52;;;5.00;;
59486;SDS011;45298;54.918;73.504;2023-07-13T13:21:53;19.90;;;5.32;;
59486;SDS011;45298;54.918;73.504;2023-07-13T13:24:26;14.93;;;5.03;;
59486;SDS011;45298;54.918;73.504;2023-07-13T13:26:57;23.88;;;5.93;;
59486;SDS011;45298;54.918;73.504;2023-07-13T13:29:26;19.65;;;6.32;;
59486;SDS011;45298;54.918;73.504;2023-07-13T13:31:55;15.27;;;6.13;;
59486;SDS011;45298;54.918;73.504;2023-07-13T13:34:24;28.38;;;6.60;;
59486;SDS011;45298;54.918;73.504;2023-07-13T13:36:57;26.00;;;6.47;;
59486;SDS011;45298;54.918;73.504;2023-07-13T13:39:32;14.25;;;6.18;;
59486;SDS011;45298;54.918;73.504;2023-07-13T13:42:04;15.80;;;5.88;;
59486;SDS011;45298;54.918;73.504;2023-07-13T13:44:33;18.42;;;7.07;;
59486;SDS011;45298;54.918;73.504;2023-07-13T13:47:02;24.33;;;7.93;;
59486;SDS011;45298;54.918;73.504;2023-07-13T13:49:31;29.33;;;16.40;;
59486;SDS011;45298;54.918;73.504;2023-07-13T13:52:00;64.00;;;40.05;;
59486;SDS011;45298;54.918;73.504;2023-07-13T13:54:29;36.70;;;16.27;;
59486;SDS011;45298;54.918;73.504;2023-07-13T13:56:59;29.65;;;10.50;;
59486;SDS011;45298;54.918;73.504;2023-07-13T13:59:28;33.85;;;9.30;;
59486;SDS011;45298;54.918;73.504;2023-07-13T14:02:00;22.42;;;7.88;;
59486;SDS011;45298;54.918;73.504;2023-07-13T14:04:33;20.90;;;7.50;;
59486;SDS011;45298;54.918;73.504;2023-07-13T14:07:02;40.70;;;6.30;;
59486;SDS011;45298;54.918;73.504;2023-07-13T14:09:32;20.92;;;4.47;;
59486;SDS011;45298;54.918;73.504;2023-07-13T14:12:02;26.00;;;4.80;;
59486;SDS011;45298;54.918;73.504;2023-07-13T14:14:32;40.58;;;5.18;;
59486;SDS011;45298;54.918;73.504;2023-07-13T14:17:02;34.03;;;5.30;;
59486;SDS011;45298;54.918;73.504;2023-07-13T14:19:32;24.95;;;4.35;;
59486;SDS011;45298;54.918;73.504;2023-07-13T14:22:01;15.02;;;4.00;;
59486;SDS011;45298;54.918;73.504;2023-07-13T14:24:31;16.75;;;4.47;;
59486;SDS011;45298;54.918;73.504;2023-07-13T14:27:00;18.58;;;4.43;;
59486;SDS011;45298;54.918;73.504;2023-07-13T14:29:33;12.85;;;4.57;;
59486;SDS011;45298;54.918;73.504;2023-07-13T14:32:02;72.20;;;46.28;;
59486;SDS011;45298;54.918;73.504;2023-07-13T14:34:33;17.85;;;5.78;;
59486;SDS011;45298;54.918;73.504;2023-07-13T14:37:03;21.88;;;4.28;;
59486;SDS011;45298;54.918;73.504;2023-07-13T14:39:33;23.35;;;4.88;;
59486;SDS011;45298;54.918;73.504;2023-07-13T14:42:02;14.77;;;4.10;;
59486;SDS011;45298;54.918;73.504;2023-07-13T14:44:31;15.00;;;4.30;;
59486;SDS011;45298;54.918;73.504;2023-07-13T14:47:02;15.93;;;4.43;;
59486;SDS011;45298;54.918;73.504;2023-07-13T14:49:35;13.63;;;4.22;;
59486;SDS011;45298;54.918;73.504;2023-07-13T14:52:13;14.88;;;4.30;;
59486;SDS011;45298;54.918;73.504;2023-07-13T14:57:17;10.60;;;3.90;;
59486;SDS011;45298;54.918;73.504;2023-07-13T14:59:50;12.80;;;4.10;;
59486;SDS011;45298;54.918;73.504;2023-07-13T15:05:13;8.65;;;3.50;;
59486;SDS011;45298;54.918;73.504;2023-07-13T15:07:51;6.10;;;4.10;;
59486;SDS011;45298;54.918;73.504;2023-07-13T15:10:29;12.65;;;7.10;;
59486;SDS011;45298;54.918;73.504;2023-07-13T15:13:12;8.23;;;3.65;;
59486;SDS011;45298;54.918;73.504;2023-07-13T15:15:43;11.20;;;3.72;;
59486;SDS011;45298;54.918;73.504;2023-07-13T15:18:16;7.13;;;4.30;;
59486;SDS011;45298;54.918;73.504;2023-07-13T15:20:48;7.10;;;3.67;;
59486;SDS011;45298;54.918;73.504;2023-07-13T15:23:20;8.45;;;4.32;;
59486;SDS011;45298;54.918;73.504;2023-07-13T15:25:50;12.02;;;4.53;;
59486;SDS011;45298;54.918;73.504;2023-07-13T15:28:20;14.35;;;4.60;;
59486;SDS011;45298;54.918;73.504;2023-07-13T15:30:49;11.07;;;4.70;;
59486;SDS011;45298;54.918;73.504;2023-07-13T15:35:55;19.75;;;4.85;;
59486;SDS011;45298;54.918;73.504;2023-07-13T15:38:29;17.17;;;5.00;;
59486;SDS011;45298;54.918;73.504;2023-07-13T15:40:59;21.90;;;5.40;;
59486;SDS011;45298;54.918;73.504;2023-07-13T15:43:28;15.45;;;5.15;;
59486;SDS011;45298;54.918;73.504;2023-07-13T15:46:04;15.25;;;5.35;;
59486;SDS011;45298;54.918;73.504;2023-07-13T15:48:33;11.25;;;5.10;;